sensor_id;sensor_type;location;lat;lon;timestamp;P1;durP1;ratioP1;P2;durP2;ratioP2
11537;SDS011;50159;49.426;11.182;2023-01-05T00:01:43;1.10;;;1.10;;
11537;SDS011;50159;49.426;11.182;2023-01-05T00:04:10;1.67;;;1.57;;
11537;SDS011;50159;49.426;11.182;2023-01-05T00:06:37;2.10;;;1.43;;
11537;SDS011;50159;49.426;11.182;2023-01-05T00:09:05;1.37;;;1.27;;
11537;SDS011;50159;49.426;11.182;2023-01-05T00:11:43;2.20;;;1.20;;
11537;SDS011;50159;49.426;11.182;2023-01-05T00:14:29;1.10;;;1.10;;
11537;SDS011;50159;49.426;11.182;2023-01-05T00:17:18;1.43;;;1.43;;
11537;SDS011;50159;49.426;11.182;2023-01-05T00:20:06;1.27;;;1.27;;
11537;SDS011;50159;49.426;11.182;2023-01-05T00:23:01;1.30;;;1.30;;
11537;SDS011;50159;49.426;11.182;2023-01-05T00:25:29;1.30;;;1.30;;
11537;SDS011;50159;49.426;11.182;2023-01-05T00:27:59;1.10;;;1.10;;
11537;SDS011;50159;49.426;11.182;2023-01-05T00:30:27;2.93;;;1.23;;
11537;SDS011;50159;49.426;11.182;2023-01-05T00:32:57;1.70;;;1.60;;
11537;SDS011;50159;49.426;11.182;2023-01-05T00:35:24;1.57;;;1.43;;
11537;SDS011;50159;49.426;11.182;2023-01-05T00:37:51;1.23;;;1.23;;
11537;SDS011;50159;49.426;11.182;2023-01-05T00:40:18;1.20;;;1.20;;
11537;SDS011;50159;49.426;11.182;2023-01-05T00:42:47;1.30;;;1.30;;
11537;SDS011;50159;49.426;11.182;2023-01-05T00:45:14;1.43;;;1.30;;
11537;SDS011;50159;49.426;11.182;2023-01-05T00:47:43;1.30;;;1.30;;
11537;SDS011;50159;49.426;11.182;2023-01-05T00:50:15;1.30;;;1.30;;
11537;SDS011;50159;49.426;11.182;2023-01-05T00:52:43;1.30;;;1.30;;
11537;SDS011;50159;49.426;11.182;2023-01-05T00:55:10;3.40;;;1.77;;
11537;SDS011;50159;49.426;11.182;2023-01-05T00:57:38;1.33;;;1.33;;
11537;SDS011;50159;49.426;11.182;2023-01-05T01:00:06;1.37;;;1.33;;
11537;SDS011;50159;49.426;11.182;2023-01-05T01:02:39;1.40;;;1.30;;
11537;SDS011;50159;49.426;11.182;2023-01-05T01:05:06;1.20;;;1.20;;
11537;SDS011;50159;49.426;11.182;2023-01-05T01:07:33;1.40;;;1.40;;
11537;SDS011;50159;49.426;11.182;2023-01-05T01:10:00;1.33;;;1.33;;
11537;SDS011;50159;49.426;11.182;2023-01-05T01:12:27;1.40;;;1.40;;
11537;SDS011;50159;49.426;11.182;2023-01-05T01:14:53;1.30;;;1.30;;
11537;SDS011;50159;49.426;11.182;2023-01-05T01:17:20;2.10;;;2.00;;
11537;SDS011;50159;49.426;11.182;2023-01-05T01:19:47;1.30;;;1.30;;
11537;SDS011;50159;49.426;11.182;2023-01-05T01:22:14;2.23;;;1.53;;
11537;SDS011;50159;49.426;11.182;2023-01-05T01:24:41;1.40;;;1.30;;
11537;SDS011;50159;49.426;11.182;2023-01-05T01:27:07;1.20;;;1.20;;
11537;SDS011;50159;49.426;11.182;2023-01-05T01:29:34;1.30;;;1.30;;
11537;SDS011;50159;49.426;11.182;2023-01-05T01:32:01;3.50;;;1.57;;
11537;SDS011;50159;49.426;11.182;2023-01-05T01:34:28;1.37;;;1.27;;
11537;SDS011;50159;49.426;11.182;2023-01-05T01:36:55;1.70;;;1.40;;
11537;SDS011;50159;49.426;11.182;2023-01-05T01:39:22;1.87;;;1.83;;
11537;SDS011;50159;49.426;11.182;2023-01-05T01:41:49;1.27;;;1.27;;
11537;SDS011;50159;49.426;11.182;2023-01-05T01:49:55;1.40;;;1.30;;
11537;SDS011;50159;49.426;11.182;2023-01-05T01:52:27;4.87;;;2.50;;
11537;SDS011;50159;49.426;11.182;2023-01-05T01:55:00;1.23;;;1.23;;
11537;SDS011;50159;49.426;11.182;2023-01-05T01:57:30;1.37;;;1.30;;
11537;SDS011;50159;49.426;11.182;2023-01-05T01:59:59;2.43;;;1.40;;
11537;SDS011;50159;49.426;11.182;2023-01-05T02:02:32;2.80;;;1.40;;
11537;SDS011;50159;49.426;11.182;2023-01-05T02:05:00;1.47;;;1.33;;
11537;SDS011;50159;49.426;11.182;2023-01-05T02:07:33;1.20;;;1.20;;
11537;SDS011;50159;49.426;11.182;2023-01-05T02:10:05;1.33;;;1.33;;
11537;SDS011;50159;49.426;11.182;2023-01-05T02:12:37;1.47;;;1.43;;
11537;SDS011;50159;49.426;11.182;2023-01-05T02:15:49;1.30;;;1.30;;
11537;SDS011;50159;49.426;11.182;2023-01-05T02:24:56;1.30;;;1.30;;
11537;SDS011;50159;49.426;11.182;2023-01-05T02:31:22;1.30;;;1.30;;
11537;SDS011;50159;49.426;11.182;2023-01-05T02:36:43;1.20;;;1.20;;
11537;SDS011;50159;49.426;11.182;2023-01-05T02:39:24;1.20;;;1.20;;
11537;SDS011;50159;49.426;11.182;2023-01-05T02:42:50;1.43;;;1.30;;
11537;SDS011;50159;49.426;11.182;2023-01-05T02:45:21;1.13;;;1.13;;
11537;SDS011;50159;49.426;11.182;2023-01-05T02:47:49;1.50;;;1.47;;
11537;SDS011;50159;49.426;11.182;2023-01-05T02:53:24;1.13;;;1.13;;
11537;SDS011;50159;49.426;11.182;2023-01-05T02:56:12;1.20;;;1.20;;
11537;SDS011;50159;49.426;11.182;2023-01-05T02:58:53;1.10;;;1.10;;
11537;SDS011;50159;49.426;11.182;2023-01-05T03:01:38;1.23;;;1.23;;
11537;SDS011;50159;49.426;11.182;2023-01-05T03:04:21;1.20;;;1.20;;
11537;SDS011;50159;49.426;11.182;2023-01-05T03:07:06;1.10;;;1.10;;
11537;SDS011;50159;49.426;11.182;2023-01-05T03:09:38;1.20;;;1.20;;
11537;SDS011;50159;49.426;11.182;2023-01-05T03:12:28;1.00;;;1.00;;
11537;SDS011;50159;49.426;11.182;2023-01-05T03:15:30;1.10;;;1.10;;
11537;SDS011;50159;49.426;11.182;2023-01-05T03:17:59;1.10;;;1.10;;
11537;SDS011;50159;49.426;11.182;2023-01-05T03:20:33;1.30;;;1.30;;
11537;SDS011;50159;49.426;11.182;2023-01-05T03:23:07;1.20;;;1.20;;
11537;SDS011;50159;49.426;11.182;2023-01-05T03:25:56;1.10;;;1.10;;
11537;SDS011;50159;49.426;11.182;2023-01-05T03:28:43;1.60;;;1.30;;
11537;SDS011;50159;49.426;11.182;2023-01-05T03:31:43;1.47;;;1.13;;
11537;SDS011;50159;49.426;11.182;2023-01-05T03:34:54;1.00;;;1.00;;
11537;SDS011;50159;49.426;11.182;2023-01-05T03:37:57;1.20;;;1.20;;
11537;SDS011;50159;49.426;11.182;2023-01-05T03:40:50;1.10;;;1.10;;
11537;SDS011;50159;49.426;11.182;2023-01-05T03:43:21;1.10;;;1.10;;
11537;SDS011;50159;49.426;11.182;2023-01-05T03:45:52;1.17;;;1.13;;
11537;SDS011;50159;49.426;11.182;2023-01-05T03:48:22;1.20;;;1.20;;
11537;SDS011;50159;49.426;11.182;2023-01-05T03:50:51;1.10;;;1.10;;
11537;SDS011;50159;49.426;11.182;2023-01-05T03:53:18;1.10;;;1.10;;
11537;SDS011;50159;49.426;11.182;2023-01-05T03:55:45;1.07;;;1.00;;
11537;SDS011;50159;49.426;11.182;2023-01-05T03:58:11;1.23;;;1.23;;
11537;SDS011;50159;49.426;11.182;2023-01-05T04:00:38;1.10;;;1.10;;
11537;SDS011;50159;49.426;11.182;2023-01-05T04:03:05;1.10;;;1.10;;
11537;SDS011;50159;49.426;11.182;2023-01-05T04:05:34;1.30;;;1.20;;
11537;SDS011;50159;49.426;11.182;2023-01-05T04:08:01;1.10;;;1.10;;
11537;SDS011;50159;49.426;11.182;2023-01-05T04:10:28;1.10;;;1.10;;
11537;SDS011;50159;49.426;11.182;2023-01-05T04:12:55;1.10;;;1.10;;
11537;SDS011;50159;49.426;11.182;2023-01-05T04:15:22;1.23;;;1.10;;
11537;SDS011;50159;49.426;11.182;2023-01-05T04:17:49;1.17;;;1.17;;
11537;SDS011;50159;49.426;11.182;2023-01-05T04:20:16;1.10;;;1.10;;
11537;SDS011;50159;49.426;11.182;2023-01-05T04:22:43;1.10;;;1.10;;
11537;SDS011;50159;49.426;11.182;2023-01-05T04:25:09;1.17;;;1.10;;
11537;SDS011;50159;49.426;11.182;2023-01-05T04:27:36;1.10;;;1.10;;
11537;SDS011;50159;49.426;11.182;2023-01-05T04:30:03;1.10;;;1.10;;
11537;SDS011;50159;49.426;11.182;2023-01-05T04:32:31;3.20;;;2.90;;
11537;SDS011;50159;49.426;11.182;2023-01-05T04:34:58;1.20;;;1.20;;
11537;SDS011;50159;49.426;11.182;2023-01-05T04:37:32;1.07;;;1.00;;
11537;SDS011;50159;49.426;11.182;2023-01-05T04:39:58;1.30;;;1.30;;
11537;SDS011;50159;49.426;11.182;2023-01-05T04:42:25;1.00;;;1.00;;
11537;SDS011;50159;49.426;11.182;2023-01-05T04:44:52;1.10;;;1.10;;
11537;SDS011;50159;49.426;11.182;2023-01-05T04:47:19;1.00;;;1.00;;
11537;SDS011;50159;49.426;11.182;2023-01-05T04:49:45;1.00;;;1.00;;
11537;SDS011;50159;49.426;11.182;2023-01-05T04:52:12;1.10;;;1.10;;
11537;SDS011;50159;49.426;11.182;2023-01-05T04:54:39;1.23;;;1.23;;
11537;SDS011;50159;49.426;11.182;2023-01-05T04:57:05;1.00;;;1.00;;
11537;SDS011;50159;49.426;11.182;2023-01-05T04:59:32;5.30;;;1.00;;
11537;SDS011;50159;49.426;11.182;2023-01-05T05:01:59;1.00;;;1.00;;
11537;SDS011;50159;49.426;11.182;2023-01-05T05:04:26;1.00;;;1.00;;
11537;SDS011;50159;49.426;11.182;2023-01-05T05:06:53;1.00;;;1.00;;
11537;SDS011;50159;49.426;11.182;2023-01-05T05:09:19;1.80;;;1.00;;
11537;SDS011;50159;49.426;11.182;2023-01-05T05:11:46;1.10;;;1.10;;
11537;SDS011;50159;49.426;11.182;2023-01-05T05:14:13;1.10;;;1.10;;
11537;SDS011;50159;49.426;11.182;2023-01-05T05:16:39;1.03;;;1.03;;
11537;SDS011;50159;49.426;11.182;2023-01-05T05:19:07;1.30;;;1.20;;
11537;SDS011;50159;49.426;11.182;2023-01-05T05:21:35;1.20;;;1.20;;
11537;SDS011;50159;49.426;11.182;2023-01-05T05:24:02;1.40;;;1.40;;
11537;SDS011;50159;49.426;11.182;2023-01-05T05:26:29;1.40;;;1.40;;
11537;SDS011;50159;49.426;11.182;2023-01-05T05:28:56;1.20;;;1.20;;
11537;SDS011;50159;49.426;11.182;2023-01-05T05:31:24;1.30;;;1.30;;
11537;SDS011;50159;49.426;11.182;2023-01-05T05:33:51;1.30;;;1.20;;
11537;SDS011;50159;49.426;11.182;2023-01-05T05:36:18;1.33;;;1.33;;
11537;SDS011;50159;49.426;11.182;2023-01-05T05:38:45;1.60;;;1.50;;
11537;SDS011;50159;49.426;11.182;2023-01-05T05:41:12;1.10;;;1.10;;
11537;SDS011;50159;49.426;11.182;2023-01-05T05:43:39;1.00;;;1.00;;
11537;SDS011;50159;49.426;11.182;2023-01-05T05:46:05;1.00;;;1.00;;
11537;SDS011;50159;49.426;11.182;2023-01-05T05:48:32;1.10;;;1.10;;
11537;SDS011;50159;49.426;11.182;2023-01-05T05:50:59;1.00;;;1.00;;
11537;SDS011;50159;49.426;11.182;2023-01-05T05:53:26;1.00;;;1.00;;
11537;SDS011;50159;49.426;11.182;2023-01-05T05:55:53;1.00;;;1.00;;
11537;SDS011;50159;49.426;11.182;2023-01-05T05:58:20;1.10;;;1.10;;
11537;SDS011;50159;49.426;11.182;2023-01-05T06:00:47;1.10;;;1.10;;
11537;SDS011;50159;49.426;11.182;2023-01-05T06:03:14;1.00;;;1.00;;
11537;SDS011;50159;49.426;11.182;2023-01-05T06:05:41;1.90;;;1.10;;
11537;SDS011;50159;49.426;11.182;2023-01-05T06:08:08;1.00;;;1.00;;
11537;SDS011;50159;49.426;11.182;2023-01-05T06:10:34;1.10;;;1.10;;
11537;SDS011;50159;49.426;11.182;2023-01-05T06:13:01;1.30;;;1.27;;
11537;SDS011;50159;49.426;11.182;2023-01-05T06:15:30;3.57;;;1.40;;
11537;SDS011;50159;49.426;11.182;2023-01-05T06:17:57;4.57;;;1.50;;
11537;SDS011;50159;49.426;11.182;2023-01-05T06:20:23;4.83;;;1.83;;
11537;SDS011;50159;49.426;11.182;2023-01-05T06:22:50;1.47;;;1.33;;
11537;SDS011;50159;49.426;11.182;2023-01-05T06:25:17;8.17;;;1.97;;
11537;SDS011;50159;49.426;11.182;2023-01-05T06:27:43;5.30;;;1.87;;
11537;SDS011;50159;49.426;11.182;2023-01-05T06:30:10;5.23;;;1.83;;
11537;SDS011;50159;49.426;11.182;2023-01-05T06:32:38;4.37;;;2.07;;
11537;SDS011;50159;49.426;11.182;2023-01-05T06:35:05;6.77;;;2.60;;
11537;SDS011;50159;49.426;11.182;2023-01-05T06:37:32;7.90;;;2.20;;
11537;SDS011;50159;49.426;11.182;2023-01-05T06:39:59;8.80;;;2.30;;
11537;SDS011;50159;49.426;11.182;2023-01-05T06:42:26;6.33;;;2.07;;
11537;SDS011;50159;49.426;11.182;2023-01-05T06:44:53;8.00;;;2.00;;
11537;SDS011;50159;49.426;11.182;2023-01-05T06:47:19;7.77;;;2.13;;
11537;SDS011;50159;49.426;11.182;2023-01-05T06:49:47;8.20;;;2.20;;
11537;SDS011;50159;49.426;11.182;2023-01-05T06:52:14;3.37;;;1.87;;
11537;SDS011;50159;49.426;11.182;2023-01-05T06:54:42;5.90;;;2.20;;
11537;SDS011;50159;49.426;11.182;2023-01-05T06:57:09;7.23;;;2.23;;
11537;SDS011;50159;49.426;11.182;2023-01-05T06:59:36;8.63;;;2.50;;
11537;SDS011;50159;49.426;11.182;2023-01-05T07:02:04;8.15;;;2.92;;
11537;SDS011;50159;49.426;11.182;2023-01-05T07:04:35;5.57;;;2.13;;
11537;SDS011;50159;49.426;11.182;2023-01-05T07:07:02;4.87;;;2.20;;
11537;SDS011;50159;49.426;11.182;2023-01-05T07:09:28;5.43;;;2.77;;
11537;SDS011;50159;49.426;11.182;2023-01-05T07:11:55;9.57;;;1.87;;
11537;SDS011;50159;49.426;11.182;2023-01-05T07:14:22;6.70;;;2.03;;
11537;SDS011;50159;49.426;11.182;2023-01-05T07:16:49;7.60;;;2.55;;
11537;SDS011;50159;49.426;11.182;2023-01-05T07:19:15;9.90;;;3.07;;
11537;SDS011;50159;49.426;11.182;2023-01-05T07:21:42;10.10;;;2.73;;
11537;SDS011;50159;49.426;11.182;2023-01-05T07:24:09;10.83;;;2.83;;
11537;SDS011;50159;49.426;11.182;2023-01-05T07:26:36;8.13;;;2.47;;
11537;SDS011;50159;49.426;11.182;2023-01-05T07:29:03;9.07;;;2.53;;
11537;SDS011;50159;49.426;11.182;2023-01-05T07:31:29;7.03;;;2.33;;
11537;SDS011;50159;49.426;11.182;2023-01-05T07:33:56;3.60;;;2.20;;
11537;SDS011;50159;49.426;11.182;2023-01-05T07:36:23;5.00;;;2.50;;
11537;SDS011;50159;49.426;11.182;2023-01-05T07:38:50;9.20;;;2.87;;
11537;SDS011;50159;49.426;11.182;2023-01-05T07:41:18;6.50;;;2.57;;
11537;SDS011;50159;49.426;11.182;2023-01-05T07:43:48;11.70;;;3.93;;
11537;SDS011;50159;49.426;11.182;2023-01-05T07:46:15;10.17;;;3.03;;
11537;SDS011;50159;49.426;11.182;2023-01-05T07:48:42;7.97;;;4.27;;
11537;SDS011;50159;49.426;11.182;2023-01-05T07:51:09;3.80;;;2.40;;
11537;SDS011;50159;49.426;11.182;2023-01-05T07:53:36;8.27;;;3.00;;
11537;SDS011;50159;49.426;11.182;2023-01-05T07:56:10;8.83;;;2.40;;
11537;SDS011;50159;49.426;11.182;2023-01-05T07:58:38;7.57;;;2.10;;
11537;SDS011;50159;49.426;11.182;2023-01-05T08:01:06;9.97;;;3.23;;
11537;SDS011;50159;49.426;11.182;2023-01-05T08:03:37;9.67;;;3.10;;
11537;SDS011;50159;49.426;11.182;2023-01-05T08:06:05;8.93;;;2.73;;
11537;SDS011;50159;49.426;11.182;2023-01-05T08:08:35;6.03;;;2.40;;
11537;SDS011;50159;49.426;11.182;2023-01-05T08:11:03;8.40;;;2.33;;
11537;SDS011;50159;49.426;11.182;2023-01-05T08:13:35;9.80;;;2.63;;
11537;SDS011;50159;49.426;11.182;2023-01-05T08:16:21;8.60;;;2.17;;
11537;SDS011;50159;49.426;11.182;2023-01-05T08:18:48;5.70;;;2.10;;
11537;SDS011;50159;49.426;11.182;2023-01-05T08:21:15;5.73;;;2.50;;
11537;SDS011;50159;49.426;11.182;2023-01-05T08:23:42;6.33;;;2.40;;
11537;SDS011;50159;49.426;11.182;2023-01-05T08:26:11;5.70;;;1.90;;
11537;SDS011;50159;49.426;11.182;2023-01-05T08:28:42;4.70;;;2.60;;
11537;SDS011;50159;49.426;11.182;2023-01-05T08:31:14;4.13;;;2.40;;
11537;SDS011;50159;49.426;11.182;2023-01-05T08:33:47;3.63;;;2.50;;
11537;SDS011;50159;49.426;11.182;2023-01-05T08:36:15;7.20;;;2.67;;
11537;SDS011;50159;49.426;11.182;2023-01-05T08:38:49;9.50;;;2.60;;
11537;SDS011;50159;49.426;11.182;2023-01-05T08:41:19;3.80;;;2.07;;
11537;SDS011;50159;49.426;11.182;2023-01-05T08:43:54;5.03;;;2.33;;
11537;SDS011;50159;49.426;11.182;2023-01-05T08:46:25;3.03;;;1.90;;
11537;SDS011;50159;49.426;11.182;2023-01-05T08:48:56;4.77;;;2.30;;
11537;SDS011;50159;49.426;11.182;2023-01-05T08:51:26;9.00;;;2.30;;
11537;SDS011;50159;49.426;11.182;2023-01-05T08:53:55;4.67;;;2.60;;
11537;SDS011;50159;49.426;11.182;2023-01-05T08:56:22;5.17;;;2.57;;
11537;SDS011;50159;49.426;11.182;2023-01-05T08:58:51;3.60;;;1.97;;
11537;SDS011;50159;49.426;11.182;2023-01-05T09:01:24;7.77;;;2.23;;
11537;SDS011;50159;49.426;11.182;2023-01-05T09:03:51;3.67;;;1.90;;
11537;SDS011;50159;49.426;11.182;2023-01-05T09:06:18;5.60;;;2.37;;
11537;SDS011;50159;49.426;11.182;2023-01-05T09:08:45;8.07;;;2.90;;
11537;SDS011;50159;49.426;11.182;2023-01-05T09:11:13;6.80;;;2.07;;
11537;SDS011;50159;49.426;11.182;2023-01-05T09:13:50;4.53;;;1.83;;
11537;SDS011;50159;49.426;11.182;2023-01-05T09:16:27;8.53;;;2.77;;
11537;SDS011;50159;49.426;11.182;2023-01-05T09:19:16;5.83;;;2.50;;
11537;SDS011;50159;49.426;11.182;2023-01-05T09:21:43;6.23;;;2.37;;
11537;SDS011;50159;49.426;11.182;2023-01-05T09:24:10;7.97;;;2.67;;
11537;SDS011;50159;49.426;11.182;2023-01-05T09:26:38;11.40;;;2.97;;
11537;SDS011;50159;49.426;11.182;2023-01-05T09:29:09;7.30;;;2.30;;
11537;SDS011;50159;49.426;11.182;2023-01-05T09:31:38;6.83;;;2.00;;
11537;SDS011;50159;49.426;11.182;2023-01-05T09:34:06;7.23;;;2.00;;
11537;SDS011;50159;49.426;11.182;2023-01-05T09:36:34;13.30;;;2.47;;
11537;SDS011;50159;49.426;11.182;2023-01-05T09:39:04;7.20;;;2.00;;
11537;SDS011;50159;49.426;11.182;2023-01-05T09:44:29;4.90;;;2.20;;
11537;SDS011;50159;49.426;11.182;2023-01-05T09:47:10;6.93;;;2.40;;
11537;SDS011;50159;49.426;11.182;2023-01-05T09:49:52;4.13;;;2.07;;
11537;SDS011;50159;49.426;11.182;2023-01-05T09:52:23;6.30;;;1.77;;
11537;SDS011;50159;49.426;11.182;2023-01-05T09:54:51;1.77;;;1.57;;
11537;SDS011;50159;49.426;11.182;2023-01-05T09:57:19;6.30;;;2.20;;
11537;SDS011;50159;49.426;11.182;2023-01-05T10:00:01;3.67;;;2.13;;
11537;SDS011;50159;49.426;11.182;2023-01-05T10:02:45;3.13;;;1.93;;
11537;SDS011;50159;49.426;11.182;2023-01-05T10:05:20;7.00;;;2.23;;
11537;SDS011;50159;49.426;11.182;2023-01-05T10:07:50;6.20;;;1.80;;
11537;SDS011;50159;49.426;11.182;2023-01-05T10:14:09;6.53;;;1.90;;
11537;SDS011;50159;49.426;11.182;2023-01-05T10:16:43;3.03;;;2.00;;
11537;SDS011;50159;49.426;11.182;2023-01-05T10:19:12;3.87;;;1.90;;
11537;SDS011;50159;49.426;11.182;2023-01-05T10:21:46;4.33;;;2.70;;
11537;SDS011;50159;49.426;11.182;2023-01-05T10:27:18;3.87;;;2.17;;
11537;SDS011;50159;49.426;11.182;2023-01-05T10:30:18;8.03;;;2.60;;
11537;SDS011;50159;49.426;11.182;2023-01-05T10:32:54;6.00;;;2.67;;
11537;SDS011;50159;49.426;11.182;2023-01-05T10:38:45;5.30;;;1.90;;
11537;SDS011;50159;49.426;11.182;2023-01-05T10:41:34;7.70;;;3.13;;
11537;SDS011;50159;49.426;11.182;2023-01-05T10:44:38;6.33;;;2.07;;
11537;SDS011;50159;49.426;11.182;2023-01-05T10:47:27;4.80;;;1.70;;
11537;SDS011;50159;49.426;11.182;2023-01-05T10:50:01;3.45;;;2.17;;
11537;SDS011;50159;49.426;11.182;2023-01-05T10:52:44;5.03;;;2.20;;
11537;SDS011;50159;49.426;11.182;2023-01-05T10:55:14;3.33;;;1.77;;
11537;SDS011;50159;49.426;11.182;2023-01-05T10:57:43;3.70;;;1.88;;
11537;SDS011;50159;49.426;11.182;2023-01-05T11:00:19;4.05;;;1.80;;
11537;SDS011;50159;49.426;11.182;2023-01-05T11:03:03;5.13;;;1.87;;
11537;SDS011;50159;49.426;11.182;2023-01-05T11:05:34;7.23;;;2.30;;
11537;SDS011;50159;49.426;11.182;2023-01-05T11:08:05;3.57;;;2.00;;
11537;SDS011;50159;49.426;11.182;2023-01-05T11:16:06;8.00;;;2.37;;
11537;SDS011;50159;49.426;11.182;2023-01-05T11:18:51;4.93;;;2.10;;
11537;SDS011;50159;49.426;11.182;2023-01-05T11:26:50;3.60;;;2.13;;
11537;SDS011;50159;49.426;11.182;2023-01-05T11:29:20;3.73;;;2.27;;
11537;SDS011;50159;49.426;11.182;2023-01-05T11:31:57;4.93;;;2.40;;
11537;SDS011;50159;49.426;11.182;2023-01-05T11:34:46;5.80;;;2.50;;
11537;SDS011;50159;49.426;11.182;2023-01-05T11:37:22;8.57;;;2.60;;
11537;SDS011;50159;49.426;11.182;2023-01-05T11:39:53;7.10;;;2.30;;
11537;SDS011;50159;49.426;11.182;2023-01-05T11:44:55;6.07;;;2.50;;
11537;SDS011;50159;49.426;11.182;2023-01-05T11:47:31;8.60;;;2.33;;
11537;SDS011;50159;49.426;11.182;2023-01-05T11:50:20;8.38;;;2.63;;
11537;SDS011;50159;49.426;11.182;2023-01-05T11:52:51;3.17;;;2.40;;
11537;SDS011;50159;49.426;11.182;2023-01-05T11:58:20;5.63;;;2.28;;
11537;SDS011;50159;49.426;11.182;2023-01-05T12:09:29;3.57;;;2.47;;
11537;SDS011;50159;49.426;11.182;2023-01-05T12:15:11;7.67;;;2.40;;
11537;SDS011;50159;49.426;11.182;2023-01-05T12:21:23;9.27;;;2.43;;
11537;SDS011;50159;49.426;11.182;2023-01-05T12:24:21;4.13;;;2.63;;
11537;SDS011;50159;49.426;11.182;2023-01-05T12:27:10;6.97;;;2.50;;
11537;SDS011;50159;49.426;11.182;2023-01-05T12:36:37;4.20;;;1.93;;
11537;SDS011;50159;49.426;11.182;2023-01-05T12:39:45;3.03;;;2.17;;
11537;SDS011;50159;49.426;11.182;2023-01-05T12:45:40;2.97;;;2.10;;
11537;SDS011;50159;49.426;11.182;2023-01-05T12:48:32;4.53;;;2.30;;
11537;SDS011;50159;49.426;11.182;2023-01-05T12:57:32;4.67;;;1.93;;
11537;SDS011;50159;49.426;11.182;2023-01-05T13:00:09;4.10;;;2.20;;
11537;SDS011;50159;49.426;11.182;2023-01-05T13:02:50;3.73;;;1.70;;
11537;SDS011;50159;49.426;11.182;2023-01-05T13:05:29;6.23;;;2.97;;
11537;SDS011;50159;49.426;11.182;2023-01-05T13:10:44;6.60;;;2.47;;
11537;SDS011;50159;49.426;11.182;2023-01-05T13:13:25;6.83;;;2.40;;
11537;SDS011;50159;49.426;11.182;2023-01-05T13:15:59;11.33;;;2.80;;
11537;SDS011;50159;49.426;11.182;2023-01-05T13:18:38;4.43;;;2.13;;
11537;SDS011;50159;49.426;11.182;2023-01-05T13:21:18;4.97;;;2.47;;
11537;SDS011;50159;49.426;11.182;2023-01-05T13:23:54;5.43;;;2.13;;
11537;SDS011;50159;49.426;11.182;2023-01-05T13:26:31;9.17;;;2.63;;
11537;SDS011;50159;49.426;11.182;2023-01-05T13:29:03;6.53;;;2.70;;
11537;SDS011;50159;49.426;11.182;2023-01-05T13:37:20;8.20;;;2.87;;
11537;SDS011;50159;49.426;11.182;2023-01-05T13:40:09;11.90;;;3.10;;
11537;SDS011;50159;49.426;11.182;2023-01-05T13:43:03;8.20;;;2.67;;
11537;SDS011;50159;49.426;11.182;2023-01-05T13:45:57;9.37;;;3.10;;
11537;SDS011;50159;49.426;11.182;2023-01-05T13:49:01;7.95;;;3.00;;
11537;SDS011;50159;49.426;11.182;2023-01-05T13:51:57;10.03;;;2.60;;
11537;SDS011;50159;49.426;11.182;2023-01-05T13:55:02;7.27;;;3.37;;
11537;SDS011;50159;49.426;11.182;2023-01-05T13:57:43;6.70;;;3.40;;
11537;SDS011;50159;49.426;11.182;2023-01-05T14:02:56;7.77;;;2.67;;
11537;SDS011;50159;49.426;11.182;2023-01-05T14:08:20;6.10;;;2.80;;
11537;SDS011;50159;49.426;11.182;2023-01-05T14:11:07;7.47;;;2.60;;
11537;SDS011;50159;49.426;11.182;2023-01-05T14:13:51;8.00;;;3.27;;
11537;SDS011;50159;49.426;11.182;2023-01-05T14:19:09;6.97;;;2.90;;
11537;SDS011;50159;49.426;11.182;2023-01-05T14:27:08;7.80;;;2.73;;
11537;SDS011;50159;49.426;11.182;2023-01-05T14:32:14;6.40;;;3.03;;
11537;SDS011;50159;49.426;11.182;2023-01-05T14:35:05;11.77;;;3.53;;
11537;SDS011;50159;49.426;11.182;2023-01-05T14:37:51;9.43;;;3.33;;
11537;SDS011;50159;49.426;11.182;2023-01-05T14:40:55;6.70;;;2.57;;
11537;SDS011;50159;49.426;11.182;2023-01-05T14:43:29;8.13;;;3.28;;
11537;SDS011;50159;49.426;11.182;2023-01-05T14:46:04;10.13;;;3.10;;
11537;SDS011;50159;49.426;11.182;2023-01-05T14:48:39;7.57;;;2.87;;
11537;SDS011;50159;49.426;11.182;2023-01-05T14:51:26;5.47;;;2.60;;
11537;SDS011;50159;49.426;11.182;2023-01-05T14:53:56;9.57;;;3.20;;
11537;SDS011;50159;49.426;11.182;2023-01-05T14:56:29;4.87;;;2.40;;
11537;SDS011;50159;49.426;11.182;2023-01-05T15:01:51;8.50;;;2.97;;
11537;SDS011;50159;49.426;11.182;2023-01-05T15:04:26;5.90;;;3.00;;
11537;SDS011;50159;49.426;11.182;2023-01-05T15:07:16;9.87;;;3.47;;
11537;SDS011;50159;49.426;11.182;2023-01-05T15:10:21;5.10;;;2.70;;
11537;SDS011;50159;49.426;11.182;2023-01-05T15:16:16;5.33;;;2.50;;
11537;SDS011;50159;49.426;11.182;2023-01-05T15:22:27;10.80;;;3.63;;
11537;SDS011;50159;49.426;11.182;2023-01-05T15:25:16;12.10;;;3.83;;
11537;SDS011;50159;49.426;11.182;2023-01-05T15:28:42;9.63;;;3.70;;
11537;SDS011;50159;49.426;11.182;2023-01-05T15:31:35;8.10;;;3.50;;
11537;SDS011;50159;49.426;11.182;2023-01-05T15:45:06;9.23;;;3.23;;
11537;SDS011;50159;49.426;11.182;2023-01-05T15:47:48;11.73;;;4.17;;
11537;SDS011;50159;49.426;11.182;2023-01-05T15:50:24;13.77;;;4.47;;
11537;SDS011;50159;49.426;11.182;2023-01-05T15:53:21;5.63;;;3.37;;
11537;SDS011;50159;49.426;11.182;2023-01-05T15:55:50;6.60;;;3.43;;
11537;SDS011;50159;49.426;11.182;2023-01-05T15:58:18;15.10;;;3.60;;
11537;SDS011;50159;49.426;11.182;2023-01-05T16:04:17;10.57;;;3.20;;
11537;SDS011;50159;49.426;11.182;2023-01-05T16:06:44;8.53;;;3.37;;
11537;SDS011;50159;49.426;11.182;2023-01-05T16:09:24;12.60;;;3.17;;
11537;SDS011;50159;49.426;11.182;2023-01-05T16:12:07;8.27;;;3.17;;
11537;SDS011;50159;49.426;11.182;2023-01-05T16:14:55;7.30;;;3.40;;
11537;SDS011;50159;49.426;11.182;2023-01-05T16:17:30;12.93;;;2.83;;
11537;SDS011;50159;49.426;11.182;2023-01-05T16:20:04;7.67;;;3.03;;
11537;SDS011;50159;49.426;11.182;2023-01-05T16:25:27;8.60;;;3.00;;
11537;SDS011;50159;49.426;11.182;2023-01-05T16:28:01;10.67;;;3.27;;
11537;SDS011;50159;49.426;11.182;2023-01-05T16:30:33;10.03;;;3.50;;
11537;SDS011;50159;49.426;11.182;2023-01-05T16:33:27;11.03;;;3.53;;
11537;SDS011;50159;49.426;11.182;2023-01-05T16:36:08;9.43;;;3.50;;
11537;SDS011;50159;49.426;11.182;2023-01-05T16:38:44;10.87;;;3.60;;
11537;SDS011;50159;49.426;11.182;2023-01-05T16:41:21;13.63;;;3.60;;
11537;SDS011;50159;49.426;11.182;2023-01-05T16:43:55;15.27;;;4.40;;
11537;SDS011;50159;49.426;11.182;2023-01-05T16:46:29;11.10;;;3.27;;
11537;SDS011;50159;49.426;11.182;2023-01-05T16:49:02;7.80;;;3.20;;
11537;SDS011;50159;49.426;11.182;2023-01-05T16:51:54;10.13;;;3.67;;
11537;SDS011;50159;49.426;11.182;2023-01-05T16:54:25;10.37;;;3.40;;
11537;SDS011;50159;49.426;11.182;2023-01-05T17:03:24;12.17;;;3.60;;
11537;SDS011;50159;49.426;11.182;2023-01-05T17:05:57;10.67;;;3.53;;
11537;SDS011;50159;49.426;11.182;2023-01-05T17:08:27;12.97;;;3.80;;
11537;SDS011;50159;49.426;11.182;2023-01-05T17:10:57;14.80;;;3.90;;
11537;SDS011;50159;49.426;11.182;2023-01-05T17:13:46;12.83;;;3.80;;
11537;SDS011;50159;49.426;11.182;2023-01-05T17:16:19;12.80;;;3.70;;
11537;SDS011;50159;49.426;11.182;2023-01-05T17:18:47;12.83;;;3.73;;
11537;SDS011;50159;49.426;11.182;2023-01-05T17:21:19;11.30;;;2.83;;
11537;SDS011;50159;49.426;11.182;2023-01-05T17:23:50;12.70;;;3.67;;
11537;SDS011;50159;49.426;11.182;2023-01-05T17:26:24;9.33;;;3.57;;
11537;SDS011;50159;49.426;11.182;2023-01-05T17:28:58;8.03;;;2.50;;
11537;SDS011;50159;49.426;11.182;2023-01-05T17:31:28;11.97;;;3.07;;
11537;SDS011;50159;49.426;11.182;2023-01-05T17:33:55;8.88;;;3.28;;